createdAt,value
2018-07-03T00:01:35.115Z,12.20
2018-07-03T00:04:04.469Z,12.30
2018-07-03T00:06:33.763Z,12.20
2018-07-03T00:09:03.319Z,12.00
2018-07-03T00:11:32.601Z,12.00
2018-07-03T00:14:01.911Z,12.00
2018-07-03T00:16:36.520Z,11.90
2018-07-03T00:19:05.936Z,11.80
2018-07-03T00:21:35.176Z,11.80
2018-07-03T00:24:04.438Z,11.90
2018-07-03T00:26:33.680Z,12.00
2018-07-03T00:31:36.081Z,11.50
2018-07-03T00:34:05.649Z,11.60
2018-07-03T00:36:34.910Z,11.80
2018-07-03T00:39:07.332Z,11.60
2018-07-03T00:41:36.614Z,11.50
2018-07-03T00:44:05.932Z,11.40
2018-07-03T00:46:35.313Z,11.30
2018-07-03T00:49:04.596Z,11.40
2018-07-03T00:51:33.835Z,11.40
2018-07-03T00:54:04.144Z,11.30
2018-07-03T00:56:33.421Z,11.20
2018-07-03T00:59:02.777Z,11.30
2018-07-03T01:01:32.088Z,11.50
2018-07-03T01:04:01.328Z,11.00
2018-07-03T01:06:30.737Z,11.00
2018-07-03T01:09:00.352Z,10.80
2018-07-03T01:11:29.617Z,10.60
2018-07-03T01:13:58.998Z,10.70
2018-07-03T01:18:57.120Z,10.80
2018-07-03T01:21:26.381Z,10.70
2018-07-03T01:23:55.589Z,10.80
2018-07-03T01:26:25.032Z,10.50
2018-07-03T01:28:54.898Z,10.50
2018-07-03T01:33:53.365Z,10.50
2018-07-03T01:36:22.605Z,10.40
2018-07-03T01:38:51.819Z,10.50
2018-07-03T01:41:21.044Z,10.50
2018-07-03T01:43:50.293Z,10.60
2018-07-03T01:46:19.542Z,10.60
2018-07-03T01:48:52.693Z,10.30
2018-07-03T01:51:21.918Z,10.20
2018-07-03T01:53:51.172Z,10.10
2018-07-03T01:56:20.449Z,9.80
2018-07-03T01:58:49.683Z,9.80
2018-07-03T02:03:47.799Z,9.70
2018-07-03T02:06:17.022Z,9.60
2018-07-03T02:08:46.295Z,9.80
2018-07-03T02:11:15.518Z,10.00
2018-07-03T02:13:44.699Z,10.00
2018-07-03T02:16:13.900Z,9.80
2018-07-03T02:18:43.084Z,9.60
2018-07-03T02:23:41.046Z,9.80
2018-07-03T02:26:10.322Z,9.80
2018-07-03T02:28:39.525Z,9.80
2018-07-03T02:31:08.778Z,9.70
2018-07-03T02:33:37.950Z,9.80
2018-07-03T02:36:08.265Z,9.90
2018-07-03T02:38:37.434Z,9.60
2018-07-03T02:41:07.097Z,9.70
2018-07-03T02:46:05.488Z,9.60
2018-07-03T02:51:03.505Z,9.30
2018-07-03T02:53:32.672Z,9.20
2018-07-03T02:56:01.854Z,9.30
2018-07-03T02:58:31.060Z,9.30
2018-07-03T03:01:00.269Z,9.20
2018-07-03T03:05:58.316Z,9.20
2018-07-03T03:08:27.700Z,9.20
2018-07-03T03:11:02.565Z,9.30
2018-07-03T03:13:31.748Z,9.00
2018-07-03T03:16:00.961Z,9.10
2018-07-03T03:18:30.207Z,9.10
2018-07-03T03:21:00.547Z,9.10
2018-07-03T03:23:29.741Z,9.20
2018-07-03T03:25:58.963Z,9.20
2018-07-03T03:28:28.250Z,9.00
2018-07-03T03:30:57.488Z,8.90
2018-07-03T03:33:26.688Z,8.90
2018-07-03T03:35:55.908Z,9.00
2018-07-03T03:38:25.108Z,9.10
2018-07-03T03:40:54.332Z,9.00
2018-07-03T03:43:23.541Z,9.00
2018-07-03T03:45:52.766Z,8.70
2018-07-03T03:48:21.991Z,8.60
2018-07-03T03:50:51.196Z,8.50
2018-07-03T03:53:20.404Z,8.70
2018-07-03T03:55:49.591Z,8.70
2018-07-03T03:58:18.830Z,8.70
2018-07-03T04:00:48.116Z,8.70
2018-07-03T04:03:17.327Z,9.00
2018-07-03T04:05:46.503Z,9.10
2018-07-03T04:08:15.689Z,9.20
2018-07-03T04:10:44.846Z,9.20
2018-07-03T04:13:14.062Z,9.10
2018-07-03T04:15:43.249Z,9.20
2018-07-03T04:18:12.480Z,9.20
2018-07-03T04:20:41.669Z,8.80
2018-07-03T04:23:10.860Z,8.60
2018-07-03T04:25:40.107Z,8.80
2018-07-03T04:28:09.307Z,8.80
2018-07-03T04:30:38.491Z,8.90
2018-07-03T04:35:36.436Z,9.20
2018-07-03T04:38:05.684Z,9.40
2018-07-03T04:40:35.960Z,9.70
2018-07-03T04:43:05.198Z,9.80
2018-07-03T04:45:34.373Z,9.60
2018-07-03T04:48:03.595Z,9.80
2018-07-03T04:50:32.821Z,10.00
2018-07-03T04:53:01.997Z,10.30
2018-07-03T04:57:59.958Z,10.40
2018-07-03T05:00:29.470Z,10.30
2018-07-03T05:02:58.861Z,10.40
2018-07-03T05:05:28.212Z,10.60
2018-07-03T05:07:59.474Z,10.50
2018-07-03T05:10:28.738Z,10.60
2018-07-03T05:12:57.939Z,10.80
2018-07-03T05:15:27.271Z,10.90
2018-07-03T05:17:56.483Z,10.90
2018-07-03T05:20:25.727Z,11.00
2018-07-03T05:22:54.937Z,11.30
2018-07-03T05:27:53.975Z,11.80
2018-07-03T05:30:23.199Z,12.20
2018-07-03T05:32:52.408Z,12.60
2018-07-03T05:35:21.667Z,12.80
2018-07-03T05:37:53.082Z,13.10
2018-07-03T05:40:22.324Z,13.20
2018-07-03T05:42:51.560Z,13.70
2018-07-03T05:45:20.794Z,14.00
2018-07-03T05:47:51.041Z,14.50
2018-07-03T05:50:20.257Z,14.70
2018-07-03T05:52:49.480Z,14.80
2018-07-03T05:55:18.733Z,15.00
2018-07-03T05:57:47.924Z,15.40
2018-07-03T06:00:17.176Z,15.90
2018-07-03T06:02:46.443Z,16.00
2018-07-03T06:05:15.653Z,16.50
2018-07-03T06:07:44.861Z,16.80
2018-07-03T06:10:14.100Z,17.10
2018-07-03T06:12:47.784Z,17.40
2018-07-03T06:15:17.004Z,17.80
2018-07-03T06:17:46.239Z,17.60
2018-07-03T06:20:15.466Z,17.90
2018-07-03T06:22:44.785Z,18.20
2018-07-03T06:25:14.011Z,18.60
2018-07-03T06:30:12.157Z,19.10
2018-07-03T06:32:43.429Z,19.30
2018-07-03T06:35:12.676Z,19.50
2018-07-03T06:37:41.950Z,19.90
2018-07-03T06:40:11.137Z,19.50
2018-07-03T06:42:40.355Z,20.00
2018-07-03T06:45:09.624Z,20.50
2018-07-03T06:47:38.878Z,19.90
2018-07-03T06:50:08.177Z,20.00
2018-07-03T06:52:37.402Z,20.60
2018-07-03T06:55:06.661Z,20.20
2018-07-03T06:57:35.890Z,21.30
2018-07-03T07:00:05.736Z,20.80
2018-07-03T07:02:34.962Z,20.70
2018-07-03T07:05:04.559Z,21.30
2018-07-03T07:07:33.788Z,21.10
2018-07-03T07:10:03.000Z,21.30
2018-07-03T07:12:32.188Z,21.10
2018-07-03T07:15:01.437Z,20.50
2018-07-03T07:17:30.567Z,20.90
2018-07-03T07:20:04.762Z,21.50
2018-07-03T07:22:33.981Z,21.70
2018-07-03T07:25:03.207Z,21.70
2018-07-03T07:27:32.372Z,21.80
2018-07-03T07:30:01.608Z,21.50
2018-07-03T07:32:30.832Z,21.90
2018-07-03T07:35:00.029Z,22.40
2018-07-03T07:37:29.204Z,22.60
2018-07-03T07:39:58.388Z,22.70
2018-07-03T07:42:28.427Z,22.60
2018-07-03T07:44:57.663Z,22.60
2018-07-03T07:47:26.897Z,22.10
2018-07-03T07:49:56.111Z,22.50
2018-07-03T07:52:25.283Z,22.90
2018-07-03T07:54:55.649Z,22.90
2018-07-03T07:57:24.837Z,22.50
2018-07-03T07:59:54.073Z,23.00
2018-07-03T08:02:23.287Z,23.30
2018-07-03T08:04:52.476Z,24.10
2018-07-03T08:07:21.663Z,24.00
2018-07-03T08:09:50.838Z,24.00
2018-07-03T08:12:20.047Z,24.30
2018-07-03T08:14:49.240Z,24.20
2018-07-03T08:17:20.516Z,24.60
2018-07-03T08:19:49.688Z,24.30
2018-07-03T08:22:18.892Z,24.70
2018-07-03T08:24:48.069Z,24.50
2018-07-03T08:27:17.277Z,24.60
2018-07-03T08:29:46.478Z,24.70
2018-07-03T08:32:15.684Z,24.80
2018-07-03T08:34:48.161Z,24.60
2018-07-03T08:37:17.485Z,25.10
2018-07-03T08:39:47.757Z,25.20
2018-07-03T08:42:18.063Z,25.60
2018-07-03T08:44:48.310Z,25.20
2018-07-03T08:47:17.512Z,25.30
2018-07-03T08:49:50.308Z,25.70
2018-07-03T08:52:19.880Z,25.20
2018-07-03T08:54:49.475Z,25.00
2018-07-03T08:57:18.762Z,24.90
2018-07-03T08:59:51.956Z,25.90
2018-07-03T09:02:21.209Z,25.60
2018-07-03T09:04:50.417Z,26.10
2018-07-03T09:07:20.753Z,26.80
2018-07-03T09:09:50.048Z,26.90
2018-07-03T09:12:19.405Z,26.10
2018-07-03T09:14:52.959Z,26.60
2018-07-03T09:17:27.515Z,26.70
2018-07-03T09:19:56.811Z,26.50
2018-07-03T09:22:26.125Z,26.50
2018-07-03T09:24:55.371Z,26.50
2018-07-03T09:27:24.581Z,26.80
2018-07-03T09:29:53.823Z,26.60
2018-07-03T09:32:23.077Z,26.30
2018-07-03T09:34:52.322Z,27.00
2018-07-03T09:37:21.571Z,26.50
2018-07-03T09:39:55.024Z,27.00
2018-07-03T09:42:24.299Z,26.00
2018-07-03T09:44:53.502Z,26.50
2018-07-03T09:47:36.608Z,27.40
2018-07-03T09:50:05.970Z,26.40
2018-07-03T09:52:36.221Z,26.90
2018-07-03T09:55:09.117Z,26.50
2018-07-03T09:57:38.352Z,27.60
2018-07-03T10:00:13.687Z,28.40
2018-07-03T10:02:44.052Z,27.90
2018-07-03T10:05:13.300Z,28.50
2018-07-03T10:07:44.629Z,28.50
2018-07-03T10:10:13.873Z,28.50
2018-07-03T10:12:43.111Z,29.30
2018-07-03T10:15:12.335Z,29.70
2018-07-03T10:17:41.572Z,29.70
2018-07-03T10:20:12.895Z,29.90
2018-07-03T10:22:42.128Z,30.00
2018-07-03T10:25:12.436Z,29.20
2018-07-03T10:27:41.670Z,29.00
2018-07-03T10:30:10.926Z,28.30
2018-07-03T10:32:40.199Z,29.40
2018-07-03T10:35:09.456Z,29.90
2018-07-03T10:37:38.676Z,29.80
2018-07-03T10:40:08.076Z,29.40
2018-07-03T10:42:38.317Z,28.10
2018-07-03T10:45:07.569Z,28.70
2018-07-03T10:47:36.777Z,28.50
2018-07-03T10:50:08.104Z,28.20
2018-07-03T10:52:37.326Z,28.00
2018-07-03T10:55:06.557Z,28.20
2018-07-03T10:57:35.804Z,29.20
2018-07-03T11:00:05.511Z,29.80
2018-07-03T11:02:34.768Z,29.40
2018-07-03T11:05:04.054Z,29.30
2018-07-03T11:07:33.259Z,29.50
2018-07-03T11:10:02.555Z,30.30
2018-07-03T11:12:32.758Z,30.30
2018-07-03T11:15:01.975Z,30.00
2018-07-03T11:17:31.225Z,29.60
2018-07-03T11:20:00.507Z,30.60
2018-07-03T11:22:29.703Z,31.00
2018-07-03T11:24:58.855Z,31.30
2018-07-03T11:29:56.817Z,31.50
2018-07-03T11:32:26.024Z,31.60
2018-07-03T11:34:55.195Z,31.40
2018-07-03T11:37:24.428Z,31.60
2018-07-03T11:39:58.042Z,31.60
2018-07-03T11:42:27.252Z,32.00
2018-07-03T11:44:56.488Z,31.40
2018-07-03T11:47:25.775Z,31.80
2018-07-03T11:49:59.361Z,31.50
2018-07-03T11:52:33.488Z,31.80
2018-07-03T11:55:02.736Z,31.30
2018-07-03T11:57:32.071Z,31.20
2018-07-03T12:00:02.151Z,31.40
2018-07-03T12:02:31.572Z,31.30
2018-07-03T12:05:00.791Z,31.00
2018-07-03T12:07:32.123Z,29.70
2018-07-03T12:10:01.336Z,30.80
2018-07-03T12:12:35.088Z,31.40
2018-07-03T12:15:04.412Z,31.30
2018-07-03T12:17:34.705Z,31.40
2018-07-03T12:20:04.724Z,30.30
2018-07-03T12:22:33.973Z,31.00
2018-07-03T12:25:04.577Z,31.10
2018-07-03T12:27:33.799Z,31.30
2018-07-03T12:30:03.075Z,31.40
2018-07-03T12:32:32.349Z,32.00
2018-07-03T12:35:01.640Z,32.40
2018-07-03T12:37:30.831Z,32.30
2018-07-03T12:40:00.065Z,31.00
2018-07-03T12:42:32.569Z,28.90
2018-07-03T12:45:03.220Z,29.60
2018-07-03T12:47:32.452Z,29.60
2018-07-03T12:50:01.683Z,30.70
2018-07-03T12:52:31.975Z,31.90
2018-07-03T12:55:01.232Z,32.20
2018-07-03T12:57:30.444Z,32.40
2018-07-03T13:00:00.701Z,32.40
2018-07-03T13:02:29.934Z,31.90
2018-07-03T13:04:59.222Z,30.70
2018-07-03T13:07:29.505Z,31.30
2018-07-03T13:09:58.757Z,31.90
2018-07-03T13:12:27.973Z,31.80
2018-07-03T13:17:26.068Z,30.70
2018-07-03T13:22:24.198Z,31.60
2018-07-03T13:24:53.423Z,32.30
2018-07-03T13:27:22.646Z,32.30
2018-07-03T13:29:51.939Z,31.90
2018-07-03T13:32:21.124Z,31.90
2018-07-03T13:34:50.416Z,32.40
2018-07-03T13:37:19.639Z,32.10
2018-07-03T13:39:48.852Z,31.90
2018-07-03T13:42:19.159Z,31.40
2018-07-03T13:44:48.421Z,31.30
2018-07-03T13:47:17.647Z,31.80
2018-07-03T13:49:46.876Z,32.30
2018-07-03T13:52:16.131Z,31.30
2018-07-03T13:54:45.373Z,31.80
2018-07-03T13:57:14.623Z,31.80
2018-07-03T13:59:47.303Z,32.30
2018-07-03T14:02:16.572Z,32.10
2018-07-03T14:04:45.789Z,32.10
2018-07-03T14:07:19.018Z,31.60
2018-07-03T14:09:48.249Z,31.70
2018-07-03T14:12:17.473Z,31.90
2018-07-03T14:14:52.042Z,32.00
2018-07-03T14:17:21.273Z,32.10
2018-07-03T14:19:50.583Z,32.30
2018-07-03T14:24:48.712Z,32.40
2018-07-03T14:27:17.989Z,32.30
2018-07-03T14:29:47.235Z,32.20
2018-07-03T14:32:16.511Z,32.30
2018-07-03T14:34:45.700Z,32.50
2018-07-03T14:37:14.975Z,32.70
2018-07-03T14:39:44.228Z,32.00
2018-07-03T14:42:16.545Z,31.40
2018-07-03T14:44:47.807Z,31.40
2018-07-03T14:47:17.056Z,31.80
2018-07-03T14:49:46.332Z,30.70
2018-07-03T14:52:15.600Z,31.10
2018-07-03T14:54:44.827Z,30.80
2018-07-03T14:57:16.136Z,30.20
2018-07-03T14:59:51.433Z,30.20
2018-07-03T15:02:20.796Z,30.80
2018-07-03T15:04:49.916Z,31.40
2018-07-03T15:07:19.144Z,31.70
2018-07-03T15:09:48.339Z,31.60
2018-07-03T15:12:18.656Z,31.70
2018-07-03T15:14:47.897Z,31.70
2018-07-03T15:17:17.080Z,31.00
2018-07-03T15:20:01.129Z,31.20
2018-07-03T15:22:30.338Z,30.70
2018-07-03T15:24:59.572Z,30.50
2018-07-03T15:27:28.828Z,30.40
2018-07-03T15:29:58.034Z,30.60
2018-07-03T15:32:27.251Z,30.80
2018-07-03T15:34:56.454Z,30.30
2018-07-03T15:37:25.782Z,30.70
2018-07-03T15:40:00.822Z,30.80
2018-07-03T15:42:30.027Z,31.00
2018-07-03T15:45:10.389Z,31.10
2018-07-03T15:47:39.605Z,30.90
2018-07-03T15:50:10.134Z,30.50
2018-07-03T15:52:55.715Z,30.70
2018-07-03T15:55:29.714Z,30.60
2018-07-03T15:57:58.906Z,30.40
2018-07-03T16:00:28.122Z,30.20
2018-07-03T16:03:08.578Z,30.00
2018-07-03T16:05:48.926Z,29.90
2018-07-03T16:08:32.674Z,29.30
2018-07-03T16:11:04.044Z,29.60
2018-07-03T16:13:33.266Z,29.60
2018-07-03T16:16:07.805Z,29.60
2018-07-03T16:18:37.028Z,29.80
2018-07-03T16:21:06.416Z,29.80
2018-07-03T16:23:35.632Z,29.60
2018-07-03T16:26:04.935Z,29.20
2018-07-03T16:28:34.133Z,29.30
2018-07-03T16:31:03.404Z,29.40
2018-07-03T16:33:32.628Z,29.50
2018-07-03T16:36:01.867Z,29.40
2018-07-03T16:38:31.071Z,29.30
2018-07-03T16:41:00.287Z,29.50
2018-07-03T16:43:29.543Z,29.40
2018-07-03T16:46:09.818Z,29.40
2018-07-03T16:48:39.756Z,29.40
2018-07-03T16:53:38.340Z,29.40
2018-07-03T16:56:07.835Z,29.30
2018-07-03T16:58:37.373Z,29.20
2018-07-03T17:01:06.613Z,29.50
2018-07-03T17:03:36.010Z,29.40
2018-07-03T17:06:11.017Z,29.00
2018-07-03T17:08:40.438Z,29.40
2018-07-03T17:11:10.656Z,29.30
2018-07-03T17:13:39.998Z,29.20
2018-07-03T17:16:09.236Z,29.20
2018-07-03T17:18:48.735Z,29.20
2018-07-03T17:21:21.813Z,29.10
2018-07-03T17:23:51.099Z,29.20
2018-07-03T17:26:20.529Z,29.00
2018-07-03T17:28:49.771Z,29.00
2018-07-03T17:31:19.021Z,28.90
2018-07-03T17:33:48.406Z,29.10
2018-07-03T17:36:17.576Z,29.00
2018-07-03T17:41:26.856Z,28.80
2018-07-03T17:44:08.768Z,28.70
2018-07-03T17:46:38.043Z,28.60
2018-07-03T17:49:07.704Z,28.50
2018-07-03T17:51:37.121Z,28.60
2018-07-03T17:54:06.532Z,28.40
2018-07-03T17:56:36.864Z,28.40
2018-07-03T17:59:08.163Z,28.60
2018-07-03T18:01:42.125Z,28.50
2018-07-03T18:04:12.376Z,28.60
2018-07-03T18:06:41.638Z,28.50
2018-07-03T18:11:40.447Z,28.20
2018-07-03T18:14:09.709Z,28.20
2018-07-03T18:16:38.956Z,28.20
2018-07-03T18:19:14.599Z,28.10
2018-07-03T18:21:44.965Z,27.90
2018-07-03T18:24:15.201Z,27.60
2018-07-03T18:26:44.414Z,27.70
2018-07-03T18:29:13.664Z,27.50
2018-07-03T18:31:43.940Z,27.40
2018-07-03T18:34:15.300Z,27.30
2018-07-03T18:36:44.569Z,26.90
2018-07-03T18:39:13.796Z,26.90
2018-07-03T18:41:45.136Z,27.10
2018-07-03T18:44:14.352Z,27.00
2018-07-03T18:46:53.227Z,26.50
2018-07-03T18:49:22.476Z,26.10
2018-07-03T18:51:51.708Z,26.20
2018-07-03T18:54:20.937Z,26.40
2018-07-03T18:56:50.180Z,26.50
2018-07-03T18:59:19.423Z,26.50
2018-07-03T19:01:49.653Z,26.60
2018-07-03T19:04:18.923Z,26.60
2018-07-03T19:06:48.167Z,26.60
2018-07-03T19:09:18.511Z,26.40
2018-07-03T19:11:47.785Z,26.40
2018-07-03T19:14:21.089Z,26.00
2018-07-03T19:17:03.095Z,25.90
2018-07-03T19:19:36.632Z,25.70
2018-07-03T19:22:07.123Z,25.50
2018-07-03T19:24:41.347Z,25.10
2018-07-03T19:27:11.671Z,25.00
2018-07-03T19:29:47.183Z,25.00
2018-07-03T19:32:21.735Z,24.80
2018-07-03T19:34:51.016Z,24.90
2018-07-03T19:37:20.359Z,24.40
2018-07-03T19:39:49.843Z,24.00
2018-07-03T19:42:19.123Z,23.60
2018-07-03T19:44:50.524Z,23.30
2018-07-03T19:47:20.258Z,23.20
2018-07-03T19:49:51.669Z,23.40
2018-07-03T19:52:20.996Z,23.10
2018-07-03T19:54:50.377Z,23.10
2018-07-03T19:57:19.896Z,23.10
2018-07-03T19:59:49.366Z,22.80
2018-07-03T20:02:23.672Z,22.10
2018-07-03T20:04:53.006Z,21.50
2018-07-03T20:07:22.210Z,21.70
2018-07-03T20:09:52.751Z,21.80
2018-07-03T20:12:30.177Z,21.80
2018-07-03T20:15:01.447Z,21.60
2018-07-03T20:17:30.691Z,21.40
2018-07-03T20:19:59.912Z,21.60
2018-07-03T20:25:06.059Z,21.50
2018-07-03T20:27:35.245Z,21.40
2018-07-03T20:30:05.766Z,21.20
2018-07-03T20:32:34.973Z,21.10
2018-07-03T20:35:04.805Z,21.00
2018-07-03T20:37:53.830Z,20.70
2018-07-03T20:40:23.759Z,20.70
2018-07-03T20:42:54.561Z,20.60
2018-07-03T20:45:23.882Z,20.40
2018-07-03T20:47:53.051Z,20.30
2018-07-03T20:50:22.264Z,20.40
2018-07-03T20:52:51.460Z,20.20
2018-07-03T20:55:20.811Z,19.90
2018-07-03T20:57:49.979Z,19.60
2018-07-03T21:00:19.183Z,19.30
2018-07-03T21:02:48.416Z,19.50
2018-07-03T21:05:17.587Z,19.20
2018-07-03T21:07:46.848Z,19.10
2018-07-03T21:10:16.045Z,18.90
2018-07-03T21:12:51.679Z,18.80
2018-07-03T21:15:20.918Z,18.70
2018-07-03T21:17:51.149Z,18.30
2018-07-03T21:20:23.411Z,18.50
2018-07-03T21:22:52.636Z,18.20
2018-07-03T21:25:23.808Z,18.10
2018-07-03T21:27:54.054Z,18.10
2018-07-03T21:30:23.349Z,18.00
2018-07-03T21:35:21.288Z,18.00
2018-07-03T21:37:50.500Z,17.80
2018-07-03T21:40:21.047Z,17.50
2018-07-03T21:42:50.243Z,17.10
2018-07-03T21:47:48.180Z,17.40
2018-07-03T21:50:17.357Z,17.40
2018-07-03T21:52:46.563Z,17.20
2018-07-03T21:55:16.042Z,17.30
2018-07-03T21:57:45.552Z,17.00
2018-07-03T22:00:15.033Z,16.80
2018-07-03T22:02:44.708Z,16.90
2018-07-03T22:05:13.924Z,16.90
2018-07-03T22:07:45.196Z,16.90
2018-07-03T22:10:14.374Z,16.80
2018-07-03T22:12:43.584Z,16.70
2018-07-03T22:15:12.806Z,16.60
2018-07-03T22:17:41.987Z,16.20
2018-07-03T22:20:11.155Z,16.20
2018-07-03T22:22:40.377Z,16.50
2018-07-03T22:25:09.561Z,16.50
2018-07-03T22:27:38.844Z,16.30
2018-07-03T22:30:08.023Z,16.30
2018-07-03T22:32:37.223Z,16.20
2018-07-03T22:35:06.390Z,15.90
2018-07-03T22:37:35.623Z,15.50
2018-07-03T22:40:10.309Z,15.50
2018-07-03T22:42:39.499Z,15.60
2018-07-03T22:45:08.683Z,15.80
2018-07-03T22:47:37.883Z,15.80
2018-07-03T22:50:07.132Z,16.00
2018-07-03T22:57:33.840Z,15.90
2018-07-03T23:00:03.044Z,15.90
2018-07-03T23:02:32.021Z,15.80
2018-07-03T23:05:01.240Z,15.70
2018-07-03T23:07:30.435Z,15.60
2018-07-03T23:09:59.644Z,15.50
2018-07-03T23:12:28.831Z,15.40
2018-07-03T23:14:58.008Z,15.10
2018-07-03T23:17:27.227Z,15.10
2018-07-03T23:19:59.588Z,15.20
2018-07-03T23:22:28.822Z,15.20
2018-07-03T23:24:58.024Z,15.20
2018-07-03T23:27:27.230Z,15.20
2018-07-03T23:29:57.463Z,15.00
2018-07-03T23:32:26.668Z,14.90
2018-07-03T23:34:55.853Z,14.80
2018-07-03T23:37:25.039Z,14.80
2018-07-03T23:39:57.340Z,14.60
2018-07-03T23:42:26.540Z,14.60
2018-07-03T23:44:55.780Z,14.60
2018-07-03T23:47:36.191Z,14.40
2018-07-03T23:50:22.791Z,14.50
2018-07-03T23:53:09.301Z,14.40
2018-07-03T23:55:55.622Z,14.50
2018-07-03T23:58:43.906Z,14.50
